Terminal Aerodrome Forecast
Issued by NWS

Home | Current Version | Previous Version | Text Only | Print | Product List | Glossary Off
Versions: 1 2 3 4 5 6 7 8 9 10 11 12 13 14 15 16 17 18 19 20 21 22

000
FTUS42 KMHX 051740
TAFOAJ
TAF
KOAJ 051740Z 0518/0618 30017G23KT 5SM -SHRA OVC035
     FM052100 30015G25KT 5SM -RA BR OVC007
     FM060200 35015G22KT 3SM -FZRAPL OVC005
     FM060900 36017G25KT P6SM OVC015
     FM061200 01015G23KT P6SM OVC100
      AMD LTD TO CLD VIS AND WIND=

USA.gov is the U.S. government's official web portal to all federal, state and local government web resources and services.